Time;durP1;ratioP1;P1;durP2;ratioP2;P2;SDS_P1;SDS_P2;PMS_P1;PMS_P2;Temp;Humidity;BMP_temperature;BMP_pressure;BME280_temperature;BME280_humidity;BME280_pressure;Samples;Min_cycle;Max_cycle;Signal;HPM_P1;HPM_P2
2021/11/14 00:02:07;;;;;;;19.00;12.68;;;6.30;99.90;;;;;;5029872;28;20045;-73
2021/11/14 00:04:34;;;;;;;19.15;14.07;;;6.30;99.90;;;;;;5013103;28;20049;-72
2021/11/14 00:07:02;;;;;;;21.83;13.73;;;6.30;99.90;;;;;;5013628;28;20053;-72
2021/11/14 00:09:30;;;;;;;19.45;13.77;;;6.40;99.90;;;;;;5029479;28;20193;-72
2021/11/14 00:11:57;;;;;;;15.73;12.13;;;6.40;99.90;;;;;;5020118;28;20063;-73
2021/11/14 00:14:29;;;;;;;16.58;12.88;;;6.40;99.90;;;;;;5014377;28;20056;-73
2021/11/14 00:17:01;;;;;;;17.55;12.32;;;6.40;99.90;;;;;;5033055;28;20056;-72
2021/11/14 00:19:29;;;;;;;19.85;13.00;;;6.40;99.90;;;;;;5033020;28;20100;-73
2021/11/14 00:21:56;;;;;;;18.02;11.95;;;6.40;99.90;;;;;;5050468;28;20041;-73
2021/11/14 00:24:23;;;;;;;15.45;11.30;;;6.40;99.90;;;;;;5031418;28;20053;-73
2021/11/14 00:26:56;;;;;;;14.45;10.55;;;6.30;99.90;;;;;;5033506;28;20055;-72
2021/11/14 00:29:27;;;;;;;13.45;9.93;;;6.30;99.90;;;;;;5019944;28;20131;-72
2021/11/14 00:31:59;;;;;;;15.55;11.20;;;6.30;99.90;;;;;;5026755;28;20120;-72
2021/11/14 00:34:34;;;;;;;15.00;10.35;;;6.30;99.90;;;;;;5044113;28;20118;-73
2021/11/14 00:37:01;;;;;;;15.30;10.70;;;6.30;99.90;;;;;;5033260;28;20140;-73
2021/11/14 00:39:28;;;;;;;15.10;10.02;;;6.30;99.90;;;;;;5034945;28;20064;-72
2021/11/14 00:42:00;;;;;;;14.90;9.98;;;6.30;99.90;;;;;;5035982;28;20064;-73
2021/11/14 00:44:32;;;;;;;12.77;9.68;;;6.30;99.90;;;;;;5015448;28;20562;-72
2021/11/14 00:47:05;;;;;;;13.43;9.35;;;6.30;99.90;;;;;;5030400;28;20044;-73
2021/11/14 00:49:37;;;;;;;15.02;9.65;;;6.30;99.90;;;;;;5034078;28;20045;-72
2021/11/14 00:52:09;;;;;;;13.55;9.60;;;6.30;99.90;;;;;;5034147;28;20044;-72
2021/11/14 00:54:41;;;;;;;13.05;9.73;;;6.20;99.90;;;;;;5032847;28;20055;-72
2021/11/14 00:57:08;;;;;;;13.65;10.20;;;6.20;99.90;;;;;;5032927;28;20575;-73
2021/11/14 00:59:40;;;;;;;13.73;9.32;;;6.20;99.90;;;;;;5017195;28;20065;-72
2021/11/14 01:02:12;;;;;;;13.30;9.77;;;6.30;99.90;;;;;;5033867;28;20040;-74
2021/11/14 01:04:44;;;;;;;13.07;9.98;;;6.30;99.90;;;;;;5032561;28;20500;-73
2021/11/14 01:07:16;;;;;;;19.02;11.60;;;6.30;99.90;;;;;;5050868;28;20048;-72
2021/11/14 01:13:05;;;;;;;14.05;9.95;;;6.30;99.90;;;;;;5928439;23;20047;-73
2021/11/14 01:15:33;;;;;;;15.57;10.88;;;6.30;99.90;;;;;;5022148;28;20076;-73
2021/11/14 01:18:05;;;;;;;13.93;10.83;;;6.30;99.90;;;;;;4993582;28;20133;-73
2021/11/14 01:20:39;;;;;;;14.95;9.90;;;6.30;99.90;;;;;;4991765;28;20035;-73
2021/11/14 01:23:12;;;;;;;17.80;11.05;;;6.30;99.90;;;;;;4990639;28;20050;-72
2021/11/14 01:25:39;;;;;;;14.48;10.77;;;6.30;99.90;;;;;;4992032;28;20137;-73
2021/11/14 01:28:11;;;;;;;14.93;10.52;;;6.30;99.90;;;;;;4990251;28;20048;-73
2021/11/14 01:30:46;;;;;;;15.25;11.05;;;6.30;99.90;;;;;;4974866;28;20050;-73
2021/11/14 01:33:19;;;;;;;14.30;10.85;;;6.30;99.90;;;;;;4990065;28;20042;-72
2021/11/14 01:35:53;;;;;;;15.30;10.60;;;6.30;99.90;;;;;;4990212;28;20042;-74
2021/11/14 01:38:21;;;;;;;16.15;11.18;;;6.30;99.90;;;;;;4989464;28;20144;-73
2021/11/14 01:40:56;;;;;;;16.02;11.05;;;6.30;99.90;;;;;;4991458;28;20042;-73
2021/11/14 01:43:27;;;;;;;19.15;11.57;;;6.30;99.90;;;;;;4993247;28;20125;-73
2021/11/14 01:45:55;;;;;;;19.25;11.90;;;6.30;99.90;;;;;;4993674;28;20129;-73
2021/11/14 01:48:26;;;;;;;20.83;12.80;;;6.30;99.90;;;;;;4993788;28;20046;-73
2021/11/14 01:50:59;;;;;;;18.48;12.20;;;6.30;99.90;;;;;;4978495;28;20097;-72
2021/11/14 01:53:27;;;;;;;17.20;12.40;;;6.30;99.90;;;;;;4993320;28;20117;-73
2021/11/14 01:55:59;;;;;;;18.83;12.27;;;6.30;99.90;;;;;;4978346;28;20046;-73
2021/11/14 01:58:31;;;;;;;18.25;12.30;;;6.30;99.90;;;;;;4977963;28;20046;-73
2021/11/14 02:01:26;;;;;;;17.60;11.30;;;6.30;99.90;;;;;;4977624;28;20039;-73
2021/11/14 02:04:02;;;;;;;17.58;11.35;;;6.40;99.90;;;;;;4991990;28;20125;-72
2021/11/14 02:06:36;;;;;;;22.23;12.13;;;6.40;99.90;;;;;;4973231;28;20042;-73
2021/11/14 02:09:08;;;;;;;17.73;11.68;;;6.40;99.90;;;;;;4974772;28;20050;-73
2021/11/14 02:11:40;;;;;;;15.77;10.88;;;6.50;99.90;;;;;;4975270;28;20050;-73
2021/11/14 02:14:12;;;;;;;18.25;11.43;;;6.50;99.90;;;;;;4958622;28;20539;-73
2021/11/14 02:16:44;;;;;;;17.52;11.93;;;6.50;99.90;;;;;;4973849;28;20057;-72
2021/11/14 02:19:11;;;;;;;20.25;11.68;;;6.50;99.90;;;;;;4974644;28;20122;-72
2021/11/14 02:21:43;;;;;;;15.90;10.77;;;6.50;99.90;;;;;;4985900;28;20519;-73
2021/11/14 02:24:15;;;;;;;16.13;10.70;;;6.50;99.90;;;;;;4991824;28;20050;-73
2021/11/14 02:26:42;;;;;;;15.25;10.15;;;6.50;99.90;;;;;;4993528;28;20045;-74
2021/11/14 02:29:14;;;;;;;15.27;10.75;;;6.50;99.90;;;;;;4993124;28;20405;-72
2021/11/14 02:31:42;;;;;;;15.18;10.98;;;6.40;99.90;;;;;;4992180;28;20121;-73
2021/11/14 02:34:14;;;;;;;15.85;11.95;;;6.40;99.90;;;;;;4976900;28;20238;-73
2021/11/14 02:36:41;;;;;;;15.85;12.05;;;6.40;99.90;;;;;;4992634;28;20137;-72
2021/11/14 02:39:13;;;;;;;14.32;10.95;;;6.40;99.90;;;;;;4976851;28;20065;-73
2021/11/14 02:41:45;;;;;;;18.05;11.98;;;6.40;99.90;;;;;;4977001;28;20475;-73
2021/11/14 02:44:17;;;;;;;17.33;12.55;;;6.40;99.90;;;;;;4993879;28;20052;-72
2021/11/14 02:46:49;;;;;;;18.30;13.07;;;6.40;99.90;;;;;;4992893;28;20125;-72
2021/11/14 02:49:21;;;;;;;18.25;13.70;;;6.40;99.90;;;;;;4992591;28;20137;-73
2021/11/14 02:51:53;;;;;;;14.82;12.30;;;6.40;99.90;;;;;;4992559;28;20121;-73
2021/11/14 02:54:25;;;;;;;19.20;12.65;;;6.40;99.90;;;;;;4992287;28;20038;-73
2021/11/14 02:56:57;;;;;;;15.82;12.15;;;6.40;99.90;;;;;;4992290;28;20042;-72
2021/11/14 02:59:25;;;;;;;16.77;13.05;;;6.40;99.90;;;;;;4992438;28;20042;-73
2021/11/14 03:01:55;;;;;;;16.77;12.38;;;6.40;99.90;;;;;;4992147;28;20134;-73
2021/11/14 03:04:27;;;;;;;17.65;13.77;;;6.40;99.90;;;;;;4991992;28;20100;-73
2021/11/14 03:06:56;;;;;;;16.23;12.27;;;6.40;99.90;;;;;;4992299;28;20142;-72
2021/11/14 03:09:28;;;;;;;17.95;12.13;;;6.40;99.90;;;;;;4992471;28;20421;-73
2021/11/14 03:12:01;;;;;;;16.25;12.85;;;6.40;99.90;;;;;;4992093;28;20338;-73
2021/11/14 03:14:33;;;;;;;18.02;12.30;;;6.40;99.90;;;;;;4976600;28;20046;-73
2021/11/14 03:17:05;;;;;;;20.55;13.88;;;6.40;99.90;;;;;;4992209;28;20050;-74
2021/11/14 03:19:36;;;;;;;17.02;12.25;;;6.40;99.90;;;;;;4976416;28;20619;-73
2021/11/14 03:22:04;;;;;;;19.98;12.90;;;6.40;99.90;;;;;;4992067;28;20077;-73
2021/11/14 03:24:30;;;;;;;17.33;12.55;;;6.40;99.90;;;;;;4991670;28;20133;-73
2021/11/14 03:27:02;;;;;;;16.55;12.50;;;6.40;99.90;;;;;;4993292;28;20133;-73
2021/11/14 03:29:35;;;;;;;17.08;11.65;;;6.40;99.90;;;;;;4976461;28;20137;-73
2021/11/14 03:32:11;;;;;;;18.48;12.30;;;6.50;99.90;;;;;;4976352;28;20048;-73
2021/11/14 03:34:43;;;;;;;17.52;12.10;;;6.50;99.90;;;;;;4993174;28;20053;-73
2021/11/14 03:37:18;;;;;;;16.10;11.85;;;6.50;99.90;;;;;;4992758;28;20042;-73
2021/11/14 03:39:45;;;;;;;18.23;12.10;;;6.50;99.90;;;;;;4991602;28;20141;-73
2021/11/14 03:42:12;;;;;;;16.63;11.73;;;6.50;99.90;;;;;;4992362;28;20113;-74
2021/11/14 03:44:44;;;;;;;17.65;11.55;;;6.50;99.90;;;;;;4991980;28;20133;-72
2021/11/14 03:47:11;;;;;;;20.35;13.23;;;6.50;99.90;;;;;;4991643;28;20046;-73
2021/11/14 03:49:43;;;;;;;21.13;13.38;;;6.50;99.90;;;;;;4990563;28;20125;-72
2021/11/14 03:52:15;;;;;;;22.63;14.90;;;6.50;99.90;;;;;;4990203;28;20129;-73
2021/11/14 03:54:47;;;;;;;23.75;15.80;;;6.60;99.90;;;;;;4991155;28;20125;-73
2021/11/14 03:57:19;;;;;;;26.90;15.88;;;6.60;99.90;;;;;;4991255;28;20121;-73
2021/11/14 03:59:50;;;;;;;23.30;13.50;;;6.60;99.90;;;;;;4991019;28;20042;-73
2021/11/14 04:02:23;;;;;;;23.98;16.00;;;6.60;99.90;;;;;;4974523;28;20038;-72
2021/11/14 04:04:54;;;;;;;25.05;15.80;;;6.60;99.90;;;;;;4992233;28;20556;-72
2021/11/14 04:07:28;;;;;;;25.92;15.93;;;6.70;99.90;;;;;;4991544;28;20397;-73
2021/11/14 04:09:55;;;;;;;25.15;15.38;;;6.60;99.90;;;;;;4992233;28;20043;-73
2021/11/14 04:12:27;;;;;;;22.38;13.80;;;6.70;99.90;;;;;;4975348;28;20042;-73
2021/11/14 04:14:59;;;;;;;19.88;12.98;;;6.70;99.90;;;;;;4975747;28;20039;-72
2021/11/14 04:17:31;;;;;;;19.77;13.20;;;6.70;99.90;;;;;;4992433;28;20038;-72
2021/11/14 04:20:04;;;;;;;19.60;13.40;;;6.60;99.90;;;;;;4991151;28;20585;-72
2021/11/14 04:22:36;;;;;;;21.60;14.00;;;6.60;99.90;;;;;;4990601;28;20535;-73
2021/11/14 04:25:05;;;;;;;19.42;13.95;;;6.60;99.90;;;;;;4992277;28;20536;-73
2021/11/14 04:27:32;;;;;;;20.33;15.05;;;6.50;99.90;;;;;;4989618;28;20069;-73
2021/11/14 04:30:06;;;;;;;21.30;14.13;;;6.60;99.90;;;;;;4990923;28;20527;-73
2021/11/14 04:32:38;;;;;;;21.27;15.20;;;6.50;99.90;;;;;;4989864;28;20122;-72
2021/11/14 04:35:10;;;;;;;24.90;16.30;;;6.50;99.90;;;;;;4991086;28;20070;-72
2021/11/14 04:37:42;;;;;;;20.33;14.15;;;6.50;99.90;;;;;;4990844;28;20137;-73
2021/11/14 04:40:10;;;;;;;18.58;13.48;;;6.50;99.90;;;;;;4991052;28;20386;-73
2021/11/14 04:42:42;;;;;;;18.88;14.27;;;6.50;99.90;;;;;;4991119;28;20117;-73
2021/11/14 04:45:14;;;;;;;19.48;13.68;;;6.50;99.90;;;;;;4987283;28;20130;-72
2021/11/14 04:47:46;;;;;;;18.23;14.17;;;6.50;99.90;;;;;;4972183;28;20125;-73
2021/11/14 04:50:20;;;;;;;19.83;14.55;;;6.40;99.90;;;;;;4993942;28;20145;-73
2021/11/14 04:52:54;;;;;;;18.42;14.27;;;6.50;99.90;;;;;;4974490;28;20042;-72
2021/11/14 04:55:26;;;;;;;20.23;14.30;;;6.50;99.90;;;;;;4974921;28;20142;-73
2021/11/14 04:57:58;;;;;;;18.27;14.13;;;6.50;99.90;;;;;;4975031;28;20475;-73
2021/11/14 05:00:31;;;;;;;19.13;13.07;;;6.50;99.90;;;;;;4990194;28;20081;-72
2021/11/14 05:03:03;;;;;;;16.65;12.38;;;6.50;99.90;;;;;;4974403;28;20473;-73
2021/11/14 05:05:31;;;;;;;20.10;13.95;;;6.50;99.90;;;;;;4990415;28;20141;-73
2021/11/14 05:08:06;;;;;;;17.95;12.10;;;6.50;99.90;;;;;;4990141;28;20077;-72
2021/11/14 05:10:38;;;;;;;18.75;12.23;;;6.50;99.90;;;;;;4991430;28;20081;-73
2021/11/14 05:13:07;;;;;;;15.00;11.43;;;6.50;99.90;;;;;;4991371;28;20535;-73
2021/11/14 05:15:35;;;;;;;18.48;13.20;;;6.50;99.90;;;;;;4992182;28;20628;-73
2021/11/14 05:18:07;;;;;;;17.40;11.95;;;6.50;99.90;;;;;;4995482;28;20049;-74
2021/11/14 05:20:39;;;;;;;17.00;12.65;;;6.50;99.90;;;;;;4994452;28;20459;-72
2021/11/14 05:23:15;;;;;;;21.55;13.50;;;6.50;99.90;;;;;;4993517;28;20124;-73
2021/11/14 05:25:48;;;;;;;19.30;12.75;;;6.50;99.90;;;;;;4995602;28;20043;-73
2021/11/14 05:28:20;;;;;;;17.40;11.82;;;6.50;99.90;;;;;;4978435;28;20129;-73
2021/11/14 05:30:52;;;;;;;18.98;12.90;;;6.50;99.90;;;;;;4995131;28;20137;-72
2021/11/14 05:33:24;;;;;;;18.85;13.75;;;6.50;99.90;;;;;;4993558;28;20042;-73
2021/11/14 05:35:51;;;;;;;18.67;13.52;;;6.50;99.90;;;;;;4995157;28;20146;-73
2021/11/14 05:38:23;;;;;;;21.63;15.07;;;6.40;99.90;;;;;;4993806;28;20044;-72
2021/11/14 05:40:55;;;;;;;21.02;14.90;;;6.40;99.90;;;;;;4978228;28;20513;-73
2021/11/14 05:43:27;;;;;;;20.52;14.25;;;6.40;99.90;;;;;;4994430;28;20100;-73
2021/11/14 05:45:53;;;;;;;20.60;13.30;;;6.40;99.90;;;;;;4994994;28;20113;-73
2021/11/14 05:48:25;;;;;;;21.45;14.05;;;6.40;99.90;;;;;;4994808;28;20125;-72
2021/11/14 05:50:58;;;;;;;20.40;13.45;;;6.40;99.90;;;;;;4993514;28;20133;-73
2021/11/14 05:53:26;;;;;;;24.52;15.30;;;6.40;99.90;;;;;;4994430;28;20465;-73
2021/11/14 05:55:58;;;;;;;20.58;14.35;;;6.30;99.90;;;;;;4993116;28;20121;-72
2021/11/14 05:58:41;;;;;;;21.00;13.35;;;6.30;99.90;;;;;;4993435;28;20457;-72
2021/11/14 06:01:19;;;;;;;21.27;13.80;;;6.30;99.90;;;;;;4993427;28;20066;-73
2021/11/14 06:06:32;;;;;;;19.58;13.88;;;6.30;99.90;;;;;;4994505;28;20121;-73
2021/11/14 06:09:04;;;;;;;19.92;13.98;;;6.30;99.90;;;;;;4993165;28;20063;-73
2021/11/14 06:11:37;;;;;;;21.15;13.43;;;6.30;99.90;;;;;;4993495;28;20066;-73
2021/11/14 06:14:09;;;;;;;21.80;16.13;;;6.30;99.90;;;;;;4977147;28;20038;-72
2021/11/14 06:16:41;;;;;;;18.05;12.95;;;6.30;99.90;;;;;;4977490;28;20142;-73
2021/11/14 06:19:13;;;;;;;18.70;13.10;;;6.30;99.90;;;;;;4993105;28;20046;-73
2021/11/14 06:21:44;;;;;;;24.55;14.27;;;6.30;99.90;;;;;;4990260;28;20038;-72
2021/11/14 06:24:16;;;;;;;20.25;14.68;;;6.30;99.90;;;;;;4993062;28;20054;-73
2021/11/14 06:26:48;;;;;;;24.48;17.60;;;6.30;99.90;;;;;;4992790;28;20535;-72
2021/11/14 06:29:20;;;;;;;21.38;14.43;;;6.30;99.90;;;;;;4992962;28;20560;-72
2021/11/14 06:31:47;;;;;;;21.40;14.23;;;6.30;99.90;;;;;;4993959;28;20086;-72
2021/11/14 06:34:18;;;;;;;20.15;13.77;;;6.30;99.90;;;;;;4993805;28;20631;-73
2021/11/14 06:36:45;;;;;;;23.00;14.80;;;6.30;99.90;;;;;;4992716;28;20048;-73
2021/11/14 06:39:12;;;;;;;23.27;15.07;;;6.30;99.90;;;;;;4994026;28;20046;-72
2021/11/14 06:41:44;;;;;;;22.17;15.38;;;6.30;99.90;;;;;;4974185;28;20138;-73
2021/11/14 06:44:16;;;;;;;19.58;14.50;;;6.40;99.90;;;;;;4958939;28;20582;-73
2021/11/14 06:46:43;;;;;;;20.35;14.50;;;6.40;99.90;;;;;;4971214;28;20039;-73
2021/11/14 06:49:15;;;;;;;20.80;14.65;;;6.40;99.90;;;;;;4978348;28;20512;-73
2021/11/14 06:51:44;;;;;;;24.08;15.23;;;6.40;99.90;;;;;;4988358;28;20042;-73
2021/11/14 06:54:16;;;;;;;18.30;14.82;;;6.40;99.90;;;;;;4988258;28;20082;-72
2021/11/14 06:56:48;;;;;;;21.73;15.32;;;6.40;99.90;;;;;;4976279;28;20074;-73
2021/11/14 06:59:20;;;;;;;23.45;14.60;;;6.40;99.90;;;;;;4993130;28;20138;-73
2021/11/14 07:01:52;;;;;;;26.60;18.58;;;6.50;99.90;;;;;;4969834;28;20146;-73
2021/11/14 07:04:24;;;;;;;26.38;17.08;;;6.50;99.90;;;;;;4985580;28;20141;-74
2021/11/14 07:06:50;;;;;;;54.25;34.50;;;6.50;99.90;;;;;;4981263;28;20050;-73
2021/11/14 07:09:22;;;;;;;35.72;25.60;;;6.50;99.90;;;;;;4988967;28;20520;-73
2021/11/14 07:11:50;;;;;;;29.10;18.75;;;6.60;99.90;;;;;;4967464;28;20085;-73
2021/11/14 07:14:17;;;;;;;24.35;17.38;;;6.60;99.90;;;;;;4974080;28;20046;-73
2021/11/14 07:16:43;;;;;;;24.48;16.75;;;6.60;99.90;;;;;;4990687;28;20485;-73
2021/11/14 07:19:16;;;;;;;23.27;15.05;;;6.60;99.90;;;;;;4975827;28;20138;-73
2021/11/14 07:21:43;;;;;;;23.65;15.60;;;6.60;99.90;;;;;;4991485;28;20129;-72
2021/11/14 07:24:16;;;;;;;23.83;16.48;;;6.60;99.90;;;;;;4989075;28;20125;-73
2021/11/14 07:26:49;;;;;;;25.60;16.75;;;6.70;99.90;;;;;;4972513;28;20122;-73
2021/11/14 07:29:16;;;;;;;31.48;21.13;;;6.70;99.90;;;;;;4972356;28;20477;-73
2021/11/14 07:31:48;;;;;;;27.90;21.40;;;6.70;99.90;;;;;;4966247;28;20046;-73
2021/11/14 07:34:15;;;;;;;29.23;19.42;;;6.80;99.90;;;;;;4991082;28;20050;-73
2021/11/14 07:36:47;;;;;;;26.02;18.98;;;6.80;99.90;;;;;;4975946;28;20137;-72
2021/11/14 07:39:16;;;;;;;29.00;17.85;;;6.80;99.90;;;;;;4990816;28;20105;-73
2021/11/14 07:41:44;;;;;;;25.88;19.27;;;6.80;99.90;;;;;;4991463;28;20046;-72
2021/11/14 07:44:13;;;;;;;26.40;18.58;;;6.80;99.90;;;;;;4990796;28;20054;-73
2021/11/14 07:46:39;;;;;;;28.25;18.80;;;6.80;99.90;;;;;;4991399;28;20142;-73
2021/11/14 07:49:11;;;;;;;30.42;16.83;;;6.80;99.90;;;;;;4991045;28;20137;-72
2021/11/14 07:51:43;;;;;;;30.92;18.77;;;6.80;99.90;;;;;;4991182;28;20101;-73
2021/11/14 07:54:11;;;;;;;32.63;19.80;;;6.80;99.90;;;;;;4990863;28;20056;-74
2021/11/14 07:56:44;;;;;;;31.75;19.58;;;6.80;99.90;;;;;;4991319;28;20133;-73
2021/11/14 07:59:15;;;;;;;33.38;19.83;;;6.80;99.90;;;;;;4990929;28;20121;-73
2021/11/14 08:01:47;;;;;;;36.22;21.02;;;6.90;99.90;;;;;;4990866;28;20049;-73
2021/11/14 08:04:19;;;;;;;41.60;22.63;;;6.90;99.90;;;;;;4990460;28;20129;-73
2021/11/14 08:06:51;;;;;;;45.28;23.58;;;6.90;99.90;;;;;;4974867;28;20142;-73
2021/11/14 08:09:23;;;;;;;40.35;23.50;;;6.90;99.90;;;;;;4974880;28;20168;-73
2021/11/14 08:11:49;;;;;;;40.92;24.67;;;6.90;99.90;;;;;;4990350;28;20130;-73
2021/11/14 08:14:17;;;;;;;42.20;24.85;;;7.00;99.90;;;;;;4990461;28;20506;-73
2021/11/14 08:16:43;;;;;;;42.72;24.52;;;7.00;99.90;;;;;;4991895;28;20417;-73
2021/11/14 08:19:15;;;;;;;40.80;22.08;;;7.00;99.90;;;;;;4990315;28;20046;-73
2021/11/14 08:21:47;;;;;;;38.45;23.27;;;6.90;99.90;;;;;;4991401;28;20469;-73
2021/11/14 08:24:19;;;;;;;50.63;30.48;;;7.00;99.90;;;;;;4991154;28;20042;-73
2021/11/14 08:26:50;;;;;;;71.93;39.13;;;7.00;99.90;;;;;;4990236;28;20065;-73
2021/11/14 08:29:22;;;;;;;51.95;27.23;;;7.00;99.90;;;;;;4991417;28;20045;-73
2021/11/14 08:31:54;;;;;;;50.50;27.27;;;7.00;99.90;;;;;;4988951;28;20416;-73
2021/11/14 08:34:21;;;;;;;46.03;25.77;;;7.00;99.90;;;;;;4990948;28;20116;-73
2021/11/14 08:36:54;;;;;;;54.53;31.60;;;7.10;99.90;;;;;;4989803;28;20452;-73
2021/11/14 08:39:21;;;;;;;53.20;28.45;;;7.00;99.90;;;;;;4989734;28;20170;-73
2021/11/14 08:41:53;;;;;;;42.30;25.65;;;7.10;99.90;;;;;;4991243;28;20038;-73
2021/11/14 08:44:24;;;;;;;55.47;29.90;;;7.10;99.90;;;;;;4990434;28;20038;-73
2021/11/14 08:46:52;;;;;;;55.17;30.60;;;7.20;99.90;;;;;;4989799;28;20484;-74
2021/11/14 08:49:19;;;;;;;51.20;28.08;;;7.30;99.90;;;;;;4989905;28;20046;-73
2021/11/14 08:51:46;;;;;;;65.93;33.45;;;7.50;99.90;;;;;;4993150;28;20062;-74
2021/11/14 08:54:12;;;;;;;51.03;31.10;;;7.50;99.90;;;;;;4987735;28;20050;-73
2021/11/14 08:56:39;;;;;;;52.28;28.80;;;7.60;99.90;;;;;;4972651;28;20050;-73
2021/11/14 08:59:13;;;;;;;46.78;28.45;;;7.60;99.90;;;;;;4976596;28;20049;-73
2021/11/14 09:01:45;;;;;;;46.50;28.05;;;7.50;99.90;;;;;;4985361;28;20074;-73
2021/11/14 09:04:16;;;;;;;44.22;25.80;;;7.50;99.90;;;;;;4970746;28;20465;-73
2021/11/14 09:06:48;;;;;;;48.40;27.45;;;7.50;99.90;;;;;;4989574;28;20133;-73
2021/11/14 09:09:22;;;;;;;49.20;28.40;;;7.50;99.90;;;;;;4991487;28;20101;-73
2021/11/14 09:11:54;;;;;;;45.10;26.52;;;7.50;99.90;;;;;;4987343;28;20528;-73
2021/11/14 09:14:26;;;;;;;45.47;25.48;;;7.50;99.90;;;;;;4976868;28;20046;-73
2021/11/14 09:16:58;;;;;;;38.95;23.55;;;7.50;99.90;;;;;;4983013;28;20129;-73
2021/11/14 09:19:25;;;;;;;39.55;23.85;;;7.50;99.90;;;;;;4989942;28;20118;-73
2021/11/14 09:21:52;;;;;;;54.15;27.38;;;7.50;99.90;;;;;;4991252;28;20046;-74
2021/11/14 09:24:19;;;;;;;54.88;30.17;;;7.40;99.90;;;;;;4991540;28;20046;-73
2021/11/14 09:26:46;;;;;;;50.10;28.30;;;7.40;99.90;;;;;;4990212;28;20138;-73
2021/11/14 09:29:13;;;;;;;48.25;30.00;;;7.40;99.90;;;;;;4990041;28;20074;-73
2021/11/14 09:31:45;;;;;;;47.85;28.77;;;7.50;99.90;;;;;;4974464;28;20066;-73
2021/11/14 09:34:17;;;;;;;40.95;25.58;;;7.50;99.90;;;;;;4989646;28;20073;-73
2021/11/14 09:36:49;;;;;;;44.40;24.88;;;7.50;99.90;;;;;;4987003;28;20043;-74
2021/11/14 09:39:32;;;;;;;41.90;24.85;;;7.50;99.90;;;;;;4986044;28;20070;-73
2021/11/14 09:42:06;;;;;;;46.58;25.17;;;7.50;99.90;;;;;;4991004;28;20042;-73
2021/11/14 09:44:39;;;;;;;39.22;24.42;;;7.60;99.90;;;;;;4987086;28;20046;-73
2021/11/14 09:47:06;;;;;;;39.90;24.30;;;7.60;99.90;;;;;;4989096;28;20450;-73
2021/11/14 09:49:38;;;;;;;43.10;24.75;;;7.60;99.90;;;;;;4974174;28;20148;-73
2021/11/14 09:52:05;;;;;;;40.22;24.15;;;7.60;99.90;;;;;;4990582;28;20107;-73
2021/11/14 09:54:33;;;;;;;40.67;23.75;;;7.60;99.90;;;;;;4990154;28;20074;-72
2021/11/14 09:57:05;;;;;;;39.95;24.83;;;7.60;99.90;;;;;;4989143;28;20445;-73
2021/11/14 09:59:32;;;;;;;33.65;22.02;;;7.60;99.90;;;;;;4989361;28;20084;-73
2021/11/14 10:02:07;;;;;;;35.78;22.30;;;7.50;99.90;;;;;;4992150;28;20066;-73
2021/11/14 10:04:33;;;;;;;38.10;24.42;;;7.50;99.90;;;;;;4992803;28;20121;-73
2021/11/14 10:07:15;;;;;;;37.67;25.00;;;7.50;99.90;;;;;;4992971;28;20038;-72
2021/11/14 10:09:51;;;;;;;37.53;23.90;;;7.50;99.90;;;;;;4994153;28;20594;-73
2021/11/14 10:12:24;;;;;;;38.75;24.30;;;7.50;99.90;;;;;;4993628;28;20125;-73
2021/11/14 10:15:20;;;;;;;36.63;24.00;;;7.50;99.90;;;;;;4993562;28;20061;-73
2021/11/14 10:17:55;;;;;;;35.20;23.05;;;7.50;99.90;;;;;;4992960;28;20050;-72
2021/11/14 10:20:30;;;;;;;32.30;22.60;;;7.50;99.90;;;;;;4991627;28;20080;-74
2021/11/14 10:23:04;;;;;;;33.50;21.90;;;7.50;99.90;;;;;;4993071;28;20684;-73
2021/11/14 10:25:36;;;;;;;32.58;22.00;;;7.60;99.90;;;;;;4992996;28;20125;-73
2021/11/14 10:28:08;;;;;;;33.13;21.08;;;7.60;99.90;;;;;;4992580;28;20560;-73
2021/11/14 10:30:46;;;;;;;35.85;23.40;;;7.70;99.90;;;;;;4992774;28;20117;-73
2021/11/14 10:33:16;;;;;;;34.73;21.17;;;7.80;99.90;;;;;;4991917;28;20086;-73
2021/11/14 10:35:47;;;;;;;32.58;21.13;;;7.80;99.90;;;;;;4992696;28;20052;-73
2021/11/14 10:38:23;;;;;;;31.77;20.85;;;7.80;99.90;;;;;;4993713;28;20121;-74
2021/11/14 10:41:03;;;;;;;36.45;23.33;;;7.90;99.90;;;;;;4992338;28;20053;-74
2021/11/14 10:43:31;;;;;;;31.05;20.23;;;7.90;99.90;;;;;;4993264;28;20038;-72
2021/11/14 10:46:04;;;;;;;27.80;20.08;;;7.90;99.90;;;;;;4976873;28;20038;-73
2021/11/14 10:48:37;;;;;;;45.35;30.05;;;7.90;99.90;;;;;;4992754;28;20042;-73
2021/11/14 10:51:06;;;;;;;48.03;29.73;;;7.90;99.90;;;;;;4993434;28;20137;-73
2021/11/14 10:53:34;;;;;;;31.30;22.23;;;7.90;99.90;;;;;;4991967;28;20479;-73
2021/11/14 10:56:09;;;;;;;31.77;22.10;;;7.90;99.90;;;;;;4976855;28;20583;-73
2021/11/14 10:58:41;;;;;;;35.53;23.08;;;8.00;99.90;;;;;;4992233;28;20424;-73
2021/11/14 11:01:15;;;;;;;31.80;22.03;;;7.90;99.90;;;;;;4993009;28;20052;-72
2021/11/14 11:03:50;;;;;;;33.58;23.27;;;7.90;99.90;;;;;;4991086;28;20125;-72
2021/11/14 11:06:29;;;;;;;33.90;22.27;;;7.90;99.90;;;;;;4992073;28;20074;-73
2021/11/14 11:09:04;;;;;;;32.05;21.35;;;7.90;99.90;;;;;;4976538;28;20500;-73
2021/11/14 11:11:43;;;;;;;31.77;21.67;;;7.90;99.90;;;;;;4992060;28;20052;-73
2021/11/14 11:14:25;;;;;;;31.08;21.98;;;7.90;99.90;;;;;;4990033;28;20141;-73
2021/11/14 11:17:00;;;;;;;32.75;20.50;;;7.90;99.90;;;;;;4993204;28;20471;-73
2021/11/14 11:19:32;;;;;;;27.42;19.13;;;7.90;99.90;;;;;;4977643;28;20135;-73
2021/11/14 11:22:05;;;;;;;30.70;19.95;;;7.90;99.90;;;;;;4993090;28;20050;-73
2021/11/14 11:24:51;;;;;;;30.63;20.48;;;7.90;99.90;;;;;;4976104;28;20500;-72
2021/11/14 11:27:19;;;;;;;30.35;20.30;;;7.90;99.90;;;;;;4991777;28;20073;-73
2021/11/14 11:29:51;;;;;;;33.90;22.20;;;7.80;99.90;;;;;;4991519;28;20137;-73
2021/11/14 11:32:25;;;;;;;29.23;19.15;;;7.80;99.90;;;;;;4992469;28;20038;-72
2021/11/14 11:35:01;;;;;;;28.40;19.92;;;7.80;99.90;;;;;;4988506;28;20053;-73
2021/11/14 11:37:33;;;;;;;29.25;18.90;;;7.80;99.90;;;;;;4974747;28;20049;-72
2021/11/14 11:40:05;;;;;;;28.30;19.08;;;7.80;99.90;;;;;;5010877;28;20129;-73
2021/11/14 11:42:39;;;;;;;29.35;18.45;;;7.80;99.90;;;;;;4995189;28;20164;-74
2021/11/14 11:45:15;;;;;;;31.80;19.55;;;7.80;99.90;;;;;;5011101;28;20523;-73
2021/11/14 11:47:45;;;;;;;28.80;20.05;;;7.80;99.90;;;;;;5010906;28;20133;-73
2021/11/14 11:50:22;;;;;;;28.67;18.40;;;7.70;99.90;;;;;;5010481;28;20045;-73
2021/11/14 11:52:54;;;;;;;28.42;18.15;;;7.70;99.90;;;;;;5011318;28;20132;-73
2021/11/14 11:55:39;;;;;;;29.85;18.48;;;7.70;99.90;;;;;;5002303;28;20038;-73
2021/11/14 11:58:15;;;;;;;27.85;18.70;;;7.70;99.90;;;;;;4990415;28;20077;-73
2021/11/14 12:00:53;;;;;;;27.02;18.77;;;7.70;99.90;;;;;;4991964;28;20407;-72
2021/11/14 12:03:28;;;;;;;28.63;18.05;;;7.80;99.90;;;;;;4976324;28;20065;-74
2021/11/14 12:06:02;;;;;;;29.27;19.38;;;7.80;99.90;;;;;;4975381;28;20042;-73
2021/11/14 12:08:57;;;;;;;29.42;19.75;;;7.80;99.90;;;;;;4988950;28;20129;-72
2021/11/14 12:11:26;;;;;;;;;;;7.80;99.90;;;;;;4990327;28;20049;-73
2021/11/14 12:14:24;;;;;;;28.02;18.30;;;7.80;99.90;;;;;;4989699;28;19921;-73
2021/11/14 12:17:06;;;;;;;29.13;18.40;;;7.70;99.90;;;;;;4991087;28;20050;-72
2021/11/14 12:19:40;;;;;;;27.65;18.80;;;7.70;99.90;;;;;;4992164;28;20066;-73
2021/11/14 12:22:19;;;;;;;26.90;18.92;;;7.80;99.90;;;;;;4990500;28;20061;-73
2021/11/14 12:24:58;;;;;;;28.70;18.00;;;7.70;99.90;;;;;;4991498;28;20038;-73
2021/11/14 12:27:29;;;;;;;26.90;17.85;;;7.80;99.90;;;;;;4990884;28;20046;-73
2021/11/14 12:30:11;;;;;;;28.42;19.17;;;7.80;99.90;;;;;;4992114;28;20043;-72
2021/11/14 12:32:48;;;;;;;27.27;18.75;;;7.80;99.90;;;;;;4990151;28;20133;-73
2021/11/14 12:35:24;;;;;;;29.10;19.48;;;7.80;99.90;;;;;;4990405;28;20089;-73
2021/11/14 12:37:56;;;;;;;26.85;17.83;;;7.80;99.90;;;;;;4985640;28;20046;-73
2021/11/14 12:40:56;;;;;;;26.13;17.48;;;7.80;99.90;;;;;;4991778;28;20110;-74
2021/11/14 12:43:25;;;;;;;;;;;7.80;99.90;;;;;;4988702;28;20125;-73
2021/11/14 12:46:15;;;;;;;29.85;18.55;;;7.80;99.90;;;;;;4990445;28;19944;-73
2021/11/14 12:48:45;;;;;;;29.83;18.77;;;7.80;99.90;;;;;;4990654;28;20068;-72
2021/11/14 12:51:25;;;;;;;31.65;19.67;;;7.80;99.90;;;;;;4992092;28;20074;-73
2021/11/14 12:54:10;;;;;;;29.75;18.35;;;7.80;99.90;;;;;;4990747;28;20149;-73
2021/11/14 12:56:44;;;;;;;26.08;16.98;;;7.80;99.90;;;;;;4990740;28;20572;-73
2021/11/14 12:59:29;;;;;;;24.85;17.55;;;7.80;99.90;;;;;;4992082;28;20072;-73
2021/11/14 13:02:22;;;;;;;25.50;16.13;;;7.80;99.90;;;;;;4990568;28;20077;-73
2021/11/14 13:04:50;;;;;;;24.65;16.98;;;7.80;99.90;;;;;;4990492;28;20101;-73
2021/11/14 13:07:29;;;;;;;24.23;16.05;;;7.80;99.90;;;;;;4990720;28;20046;-73
2021/11/14 13:10:15;;;;;;;22.90;13.38;;;7.80;99.90;;;;;;4975338;28;20045;-72